Time;durP1;ratioP1;P1;durP2;ratioP2;P2;SDS_P1;SDS_P2;PMS_P1;PMS_P2;Temp;Humidity;BMP_temperature;BMP_pressure;BME280_temperature;BME280_humidity;BME280_pressure;Samples;Min_cycle;Max_cycle;Signal;HPM_P1;HPM_P2
2021/12/15 00:02:22;;;;;;;4.15;2.40;;;21.50;55.50;;;;;;5101927;28;20043;-74
2021/12/15 00:04:51;;;;;;;5.45;2.00;;;21.50;55.50;;;;;;5099199;28;20096;-76
2021/12/15 00:07:22;;;;;;;5.43;2.33;;;21.50;55.50;;;;;;5086188;28;20043;-75
2021/12/15 00:09:48;;;;;;;4.40;2.28;;;21.50;55.40;;;;;;5083805;28;20044;-76
2021/12/15 00:12:14;;;;;;;4.72;2.13;;;21.50;55.40;;;;;;5104691;28;20155;-76
2021/12/15 00:14:42;;;;;;;5.32;2.38;;;21.50;55.40;;;;;;5104384;28;20857;-74
2021/12/15 00:17:08;;;;;;;3.80;2.10;;;21.50;55.40;;;;;;5097558;28;20067;-76
2021/12/15 00:19:34;;;;;;;4.95;2.33;;;21.50;55.50;;;;;;5090594;28;20065;-75
2021/12/15 00:22:00;;;;;;;3.88;1.92;;;21.50;55.40;;;;;;5088782;28;20502;-75
2021/12/15 00:24:27;;;;;;;5.88;2.00;;;21.50;55.40;;;;;;5100589;28;20051;-74
2021/12/15 00:26:54;;;;;;;6.57;2.25;;;21.50;55.40;;;;;;5102121;28;20057;-75
2021/12/15 00:29:20;;;;;;;6.10;2.20;;;21.50;55.40;;;;;;5106413;28;20047;-75
2021/12/15 00:31:46;;;;;;;5.57;2.15;;;21.50;55.50;;;;;;5108361;28;20058;-76
2021/12/15 00:34:13;;;;;;;5.75;2.50;;;21.50;55.50;;;;;;5102655;28;20040;-73
2021/12/15 00:36:43;;;;;;;4.38;2.28;;;21.50;55.40;;;;;;5088331;28;20032;-76
2021/12/15 00:39:11;;;;;;;3.53;2.00;;;21.50;55.40;;;;;;5095485;28;20040;-75
2021/12/15 00:41:37;;;;;;;4.38;2.22;;;21.50;55.40;;;;;;5107755;28;20372;-74
2021/12/15 00:44:03;;;;;;;2.65;1.92;;;21.50;55.40;;;;;;5133615;27;20062;-76
2021/12/15 00:46:28;;;;;;;4.20;2.30;;;21.40;55.40;;;;;;5107017;28;20050;-75
2021/12/15 00:48:54;;;;;;;5.40;2.13;;;21.40;55.40;;;;;;5109084;28;20376;-76
2021/12/15 00:51:20;;;;;;;3.28;1.80;;;21.50;55.40;;;;;;5107833;28;20055;-74
2021/12/15 00:53:45;;;;;;;4.78;2.47;;;21.40;55.40;;;;;;5108214;28;20080;-76
2021/12/15 00:56:11;;;;;;;5.07;2.47;;;21.40;55.40;;;;;;5106549;28;20040;-75
2021/12/15 00:58:37;;;;;;;4.28;2.03;;;21.40;55.30;;;;;;5109036;28;20620;-76
2021/12/15 01:01:03;;;;;;;5.18;2.33;;;21.40;55.50;;;;;;5106996;28;20032;-75
2021/12/15 01:03:30;;;;;;;3.90;2.20;;;21.40;55.30;;;;;;5107808;28;20039;-75
2021/12/15 01:06:03;;;;;;;3.88;2.17;;;21.40;55.40;;;;;;5107301;28;20028;-76
2021/12/15 01:08:31;;;;;;;5.43;2.35;;;21.40;55.40;;;;;;5107417;28;20085;-75
2021/12/15 01:11:17;;;;;;;3.30;2.00;;;21.40;55.30;;;;;;5106746;28;20051;-74
2021/12/15 01:22:08;;;;;;;4.22;2.42;;;21.40;55.30;;;;;;5103769;28;20499;-76
2021/12/15 01:24:34;;;;;;;4.18;2.03;;;21.40;55.30;;;;;;5114637;27;20036;-76
2021/12/15 01:26:59;;;;;;;3.35;2.15;;;21.40;55.30;;;;;;5106272;28;20451;-76
2021/12/15 01:29:25;;;;;;;4.53;2.33;;;21.40;55.30;;;;;;5103905;28;20052;-79
2021/12/15 01:31:51;;;;;;;4.15;2.17;;;21.40;55.30;;;;;;5087675;28;20655;-75
2021/12/15 01:34:17;;;;;;;5.22;2.08;;;21.40;55.30;;;;;;5109783;27;20069;-71
2021/12/15 01:36:42;;;;;;;4.85;2.10;;;21.50;55.40;;;;;;5098817;28;20123;-75
2021/12/15 01:39:08;;;;;;;3.42;2.10;;;21.50;55.40;;;;;;5096064;28;20096;-79
2021/12/15 01:41:34;;;;;;;4.30;2.20;;;21.50;55.40;;;;;;5099674;28;20582;-77
2021/12/15 01:46:55;;;;;;;3.72;2.25;;;21.50;55.40;;;;;;5114431;27;20051;-79
2021/12/15 01:49:33;;;;;;;3.13;2.00;;;21.50;55.30;;;;;;5115740;27;20047;-80
2021/12/15 01:52:20;;;;;;;5.65;2.00;;;21.50;55.30;;;;;;5106685;28;20048;-79
2021/12/15 01:54:52;;;;;;;4.18;2.17;;;21.50;55.30;;;;;;5103269;28;20039;-77
2021/12/15 01:57:20;;;;;;;4.10;2.25;;;21.50;55.30;;;;;;5093739;28;20023;-77
2021/12/15 01:59:47;;;;;;;4.38;2.20;;;21.50;55.40;;;;;;5106895;28;20063;-75
2021/12/15 02:02:17;;;;;;;3.33;1.98;;;21.50;55.30;;;;;;5092623;28;20489;-73
2021/12/15 02:04:43;;;;;;;3.97;2.10;;;21.50;55.40;;;;;;5130172;27;20436;-77
2021/12/15 02:07:13;;;;;;;5.38;2.42;;;21.50;55.40;;;;;;5106146;28;20055;-79
2021/12/15 02:10:01;;;;;;;5.22;2.20;;;21.50;55.40;;;;;;5102869;28;20076;-76
2021/12/15 02:12:30;;;;;;;3.42;2.20;;;21.50;55.30;;;;;;5087632;28;20097;-78
2021/12/15 02:14:57;;;;;;;3.15;2.00;;;21.50;55.30;;;;;;5122087;27;20042;-77
2021/12/15 02:17:23;;;;;;;3.53;2.20;;;21.50;55.30;;;;;;5100449;28;20415;-76
2021/12/15 02:19:51;;;;;;;4.22;2.10;;;21.50;55.30;;;;;;5097086;28;20086;-75
2021/12/15 02:22:17;;;;;;;3.22;1.92;;;21.50;55.30;;;;;;5100367;28;20066;-75
2021/12/15 02:24:46;;;;;;;4.53;1.92;;;21.60;55.30;;;;;;5106836;28;20040;-74
2021/12/15 02:27:14;;;;;;;3.33;1.98;;;21.60;55.30;;;;;;5105622;28;20028;-75
2021/12/15 02:29:43;;;;;;;2.67;1.95;;;21.50;55.20;;;;;;5106613;28;20532;-74
2021/12/15 02:37:20;;;;;;;2.45;1.80;;;21.60;55.20;;;;;;5106762;28;20047;-75
2021/12/15 02:40:00;;;;;;;3.50;2.10;;;21.50;55.10;;;;;;5100375;28;20050;-75
2021/12/15 02:42:30;;;;;;;3.65;2.05;;;21.60;55.20;;;;;;5103434;28;20065;-75
2021/12/15 02:44:56;;;;;;;3.67;2.10;;;21.50;55.20;;;;;;5134902;27;20039;-73
2021/12/15 02:47:25;;;;;;;4.68;2.03;;;21.60;55.20;;;;;;5108040;28;20059;-74
2021/12/15 02:49:53;;;;;;;3.20;2.20;;;21.50;55.10;;;;;;5105240;28;20044;-76
2021/12/15 02:52:19;;;;;;;3.40;1.90;;;21.50;55.10;;;;;;5105842;28;20130;-75
2021/12/15 02:54:45;;;;;;;4.63;2.03;;;21.50;55.10;;;;;;5100867;28;20040;-74
2021/12/15 02:57:12;;;;;;;3.67;2.00;;;21.50;55.10;;;;;;5104877;28;20038;-73
2021/12/15 03:00:03;;;;;;;3.03;1.90;;;21.50;55.10;;;;;;5104888;28;20062;-75
2021/12/15 03:05:24;;;;;;;2.60;1.77;;;21.50;55.10;;;;;;5099920;28;20048;-74
2021/12/15 03:15:59;;;;;;;3.55;1.90;;;21.50;55.10;;;;;;5105174;28;20043;-75
2021/12/15 03:18:28;;;;;;;2.78;2.17;;;21.50;55.00;;;;;;5104641;28;20047;-74
2021/12/15 03:20:59;;;;;;;3.25;2.10;;;21.50;55.00;;;;;;5105322;28;20104;-75
2021/12/15 03:23:40;;;;;;;4.10;2.00;;;21.50;55.00;;;;;;5091234;28;20040;-75
2021/12/15 03:26:08;;;;;;;2.53;1.98;;;21.50;55.00;;;;;;5106894;28;20047;-75
2021/12/15 03:37:04;;;;;;;3.30;2.00;;;21.50;55.00;;;;;;5104037;28;20127;-75
2021/12/15 03:39:31;;;;;;;3.58;2.10;;;21.50;55.00;;;;;;5105409;28;20040;-75
2021/12/15 03:42:02;;;;;;;5.72;2.45;;;21.50;55.00;;;;;;5103045;28;20499;-74
2021/12/15 03:44:30;;;;;;;3.03;2.25;;;21.50;55.00;;;;;;5106127;28;20039;-74
2021/12/15 03:46:57;;;;;;;4.93;2.38;;;21.50;55.00;;;;;;5104848;28;20594;-70
2021/12/15 03:49:23;;;;;;;4.22;2.15;;;21.50;55.00;;;;;;5104392;28;20031;-73
2021/12/15 03:51:48;;;;;;;3.28;2.30;;;21.50;55.00;;;;;;5105697;28;20047;-74
2021/12/15 03:54:14;;;;;;;3.08;2.08;;;21.50;55.00;;;;;;5091269;28;20035;-75
2021/12/15 03:56:41;;;;;;;4.97;1.95;;;21.50;55.00;;;;;;5104775;28;20636;-75
2021/12/15 03:59:07;;;;;;;3.03;2.10;;;21.50;55.00;;;;;;5102944;28;20076;-75
2021/12/15 04:01:34;;;;;;;3.40;2.22;;;21.50;55.00;;;;;;5095961;28;20048;-75
2021/12/15 04:04:01;;;;;;;3.55;2.35;;;21.50;55.00;;;;;;5100326;28;20069;-75
2021/12/15 04:06:31;;;;;;;5.75;2.47;;;21.50;55.00;;;;;;5103506;28;20058;-72
2021/12/15 04:08:57;;;;;;;2.42;2.10;;;21.50;55.00;;;;;;5103712;28;20060;-76
2021/12/15 04:11:26;;;;;;;3.70;2.30;;;21.50;54.90;;;;;;5104681;28;20146;-75
2021/12/15 04:13:52;;;;;;;4.97;2.30;;;21.50;54.90;;;;;;5094091;28;20450;-75
2021/12/15 04:16:59;;;;;;;3.10;2.08;;;21.50;54.90;;;;;;5103433;28;20647;-75
2021/12/15 04:19:17;;;;;;;4.53;2.40;;;21.50;54.90;;;;;;5092187;28;20050;-73
2021/12/15 04:21:46;;;;;;;2.92;2.13;;;21.50;54.90;;;;;;5094531;28;20050;-74
2021/12/15 04:24:14;;;;;;;3.70;2.40;;;21.50;54.90;;;;;;5102529;28;20043;-74
2021/12/15 04:26:40;;;;;;;3.35;2.25;;;21.50;54.90;;;;;;5091886;28;20058;-75
2021/12/15 04:29:06;;;;;;;2.90;2.40;;;21.50;54.90;;;;;;5100595;28;20412;-75
2021/12/15 04:31:36;;;;;;;4.22;2.38;;;21.50;54.90;;;;;;5106309;28;20055;-75
2021/12/15 04:34:06;;;;;;;4.32;2.22;;;21.50;54.90;;;;;;5103984;28;20104;-75
2021/12/15 04:36:35;;;;;;;3.92;2.13;;;21.50;54.90;;;;;;5085661;28;20036;-75
2021/12/15 04:39:04;;;;;;;4.45;2.53;;;21.50;54.90;;;;;;5090820;28;20127;-75
2021/12/15 04:41:29;;;;;;;3.78;2.45;;;21.50;54.90;;;;;;5104923;28;20038;-75
2021/12/15 04:43:57;;;;;;;3.42;2.50;;;21.50;54.90;;;;;;5101995;28;20130;-74
2021/12/15 04:46:50;;;;;;;4.47;2.60;;;21.50;54.80;;;;;;5085853;28;20047;-75
2021/12/15 04:49:18;;;;;;;3.75;2.40;;;21.50;54.80;;;;;;5134103;27;20059;-75
2021/12/15 04:51:45;;;;;;;2.78;2.13;;;21.50;54.80;;;;;;5106653;28;20036;-75
2021/12/15 04:54:11;;;;;;;5.45;2.53;;;21.50;54.80;;;;;;5102985;28;20051;-74
2021/12/15 04:56:37;;;;;;;3.85;2.75;;;21.50;54.80;;;;;;5104082;28;20515;-75
2021/12/15 04:59:03;;;;;;;3.13;2.22;;;21.50;54.80;;;;;;5090640;28;20047;-74
2021/12/15 05:01:28;;;;;;;3.45;2.33;;;21.50;54.80;;;;;;5086671;28;20039;-75
2021/12/15 05:03:54;;;;;;;3.45;2.45;;;21.50;54.80;;;;;;5084705;28;20040;-75
2021/12/15 05:06:19;;;;;;;6.07;2.90;;;21.50;54.80;;;;;;5095757;28;20050;-72
2021/12/15 05:08:45;;;;;;;3.95;2.38;;;21.50;54.80;;;;;;5103521;28;20040;-75
2021/12/15 05:11:12;;;;;;;4.28;2.80;;;21.50;54.70;;;;;;5086402;28;20131;-75
2021/12/15 05:13:38;;;;;;;3.20;2.47;;;21.50;54.70;;;;;;5098089;28;20028;-72
2021/12/15 05:16:06;;;;;;;3.25;2.60;;;21.50;54.70;;;;;;5104646;28;20063;-75
2021/12/15 05:18:32;;;;;;;3.77;2.60;;;21.50;54.70;;;;;;5095846;28;20079;-76
2021/12/15 05:20:59;;;;;;;2.83;2.40;;;21.50;54.70;;;;;;5105450;28;20365;-75
2021/12/15 05:23:31;;;;;;;3.60;2.40;;;21.50;54.70;;;;;;5107164;28;20048;-73
2021/12/15 05:25:58;;;;;;;3.55;2.58;;;21.50;54.70;;;;;;5105903;28;20040;-76
2021/12/15 05:28:24;;;;;;;3.08;2.45;;;21.50;54.70;;;;;;5106887;28;20043;-74
2021/12/15 05:30:50;;;;;;;3.42;2.45;;;21.50;54.70;;;;;;5106568;28;20043;-74
2021/12/15 05:33:16;;;;;;;4.78;2.50;;;21.50;54.60;;;;;;5107633;28;20036;-75
2021/12/15 05:35:42;;;;;;;3.35;2.42;;;21.50;54.60;;;;;;5133832;27;20774;-74
2021/12/15 05:38:08;;;;;;;3.63;2.55;;;21.50;54.60;;;;;;5096307;28;20467;-74
2021/12/15 05:40:35;;;;;;;4.07;2.63;;;21.50;54.60;;;;;;5106942;28;20512;-73
2021/12/15 05:43:02;;;;;;;4.00;2.65;;;21.50;54.60;;;;;;5107145;28;20608;-75
2021/12/15 05:45:32;;;;;;;4.88;3.08;;;21.50;54.60;;;;;;5105103;28;20154;-74
2021/12/15 05:48:00;;;;;;;5.47;2.60;;;21.50;54.60;;;;;;5141747;27;20108;-75
2021/12/15 05:50:28;;;;;;;3.67;2.90;;;21.50;54.60;;;;;;5105208;28;20047;-74
2021/12/15 05:52:54;;;;;;;;;;;21.50;54.60;;;;;;5102859;28;20036;-75
2021/12/15 05:55:21;;;;;;;4.45;2.80;;;21.50;54.60;;;;;;5099190;28;19928;-75
2021/12/15 05:57:46;;;;;;;4.88;3.30;;;21.50;54.60;;;;;;5106045;28;20036;-74
2021/12/15 06:00:29;;;;;;;4.03;2.70;;;21.50;54.60;;;;;;5106173;28;20495;-74
2021/12/15 06:02:57;;;;;;;4.22;2.75;;;21.50;54.60;;;;;;5105613;28;20043;-75
2021/12/15 06:05:23;;;;;;;4.30;2.83;;;21.50;54.60;;;;;;5106457;28;20040;-75
2021/12/15 06:07:49;;;;;;;3.63;2.60;;;21.50;54.60;;;;;;5102519;28;20055;-75
2021/12/15 06:10:21;;;;;;;4.35;3.00;;;21.50;54.60;;;;;;5102174;28;20082;-74
2021/12/15 06:12:49;;;;;;;4.00;2.80;;;21.50;54.60;;;;;;5087159;28;20412;-75
2021/12/15 06:15:22;;;;;;;3.13;2.80;;;21.50;54.60;;;;;;5096538;28;20032;-72
2021/12/15 06:18:07;;;;;;;4.30;2.75;;;21.50;54.60;;;;;;5106557;28;20048;-75
2021/12/15 06:20:34;;;;;;;3.22;2.92;;;21.50;55.30;;;;;;5102249;28;20093;-75
2021/12/15 06:23:05;;;;;;;3.65;3.10;;;21.50;54.50;;;;;;5099529;28;20039;-74
2021/12/15 06:25:30;;;;;;;3.05;2.58;;;21.50;54.50;;;;;;5111308;27;20781;-75
2021/12/15 06:27:56;;;;;;;3.88;3.13;;;21.60;54.60;;;;;;5120113;27;20052;-74
2021/12/15 06:30:22;;;;;;;4.10;2.80;;;21.50;54.50;;;;;;5098409;28;20051;-75
2021/12/15 06:32:48;;;;;;;3.83;3.00;;;21.50;54.50;;;;;;5106294;28;20093;-75
2021/12/15 06:35:14;;;;;;;5.13;2.83;;;21.50;54.50;;;;;;5105356;28;20038;-75
2021/12/15 06:37:40;;;;;;;4.47;3.03;;;21.50;54.50;;;;;;5135608;27;20044;-75
2021/12/15 06:40:08;;;;;;;4.10;3.33;;;21.50;54.50;;;;;;5098213;28;20025;-74
2021/12/15 06:42:38;;;;;;;3.88;3.05;;;21.50;54.50;;;;;;5087686;28;20087;-75
2021/12/15 06:45:05;;;;;;;3.67;3.10;;;21.50;54.50;;;;;;5100816;28;20439;-73
2021/12/15 06:57:15;;;;;;;4.10;3.30;;;21.50;54.80;;;;;;5088792;28;20066;-73
2021/12/15 06:58:36;;;;;;;5.63;3.30;;;21.50;54.50;;;;;;5105418;28;20083;-75
2021/12/15 07:01:03;;;;;;;4.38;2.90;;;21.50;54.40;;;;;;5103350;28;20044;-75
2021/12/15 07:03:32;;;;;;;3.75;3.22;;;21.50;54.50;;;;;;5106862;28;20040;-76
2021/12/15 07:05:58;;;;;;;3.88;3.17;;;21.50;54.50;;;;;;5138720;27;20071;-75
2021/12/15 07:08:27;;;;;;;3.55;3.05;;;21.50;54.50;;;;;;5105120;28;20040;-73
2021/12/15 07:10:55;;;;;;;4.68;3.15;;;21.50;54.40;;;;;;5102805;28;20062;-75
2021/12/15 07:13:21;;;;;;;4.45;3.05;;;21.50;54.50;;;;;;5105974;28;20035;-73
2021/12/15 07:15:49;;;;;;;5.25;3.20;;;21.50;54.40;;;;;;5102024;28;20130;-75
2021/12/15 07:18:25;;;;;;;4.45;3.05;;;21.50;54.40;;;;;;5116613;27;20491;-74
2021/12/15 07:20:52;;;;;;;3.70;3.30;;;21.50;54.40;;;;;;5095949;27;20044;-75
2021/12/15 07:23:21;;;;;;;6.28;3.90;;;21.50;54.40;;;;;;5086675;28;20066;-77
2021/12/15 07:25:51;;;;;;;3.95;3.35;;;21.50;54.50;;;;;;5089374;28;20080;-74
2021/12/15 07:28:21;;;;;;;6.22;3.78;;;21.50;54.50;;;;;;5085394;28;20108;-75
2021/12/15 07:30:48;;;;;;;5.35;3.33;;;21.50;54.40;;;;;;5084838;28;20136;-75
2021/12/15 07:33:13;;;;;;;5.72;3.35;;;21.60;54.50;;;;;;5085779;28;20143;-75
2021/12/15 07:35:39;;;;;;;4.45;3.50;;;21.60;54.50;;;;;;5098009;28;20394;-75
2021/12/15 07:38:06;;;;;;;4.38;3.42;;;21.60;54.60;;;;;;5099959;28;20028;-74
2021/12/15 07:40:32;;;;;;;7.30;3.70;;;21.60;54.60;;;;;;5094330;27;20060;-76
2021/12/15 07:45:42;;;;;;;4.78;3.58;;;21.60;54.80;;;;;;5121947;27;20795;-74
2021/12/15 07:48:10;;;;;;;4.73;3.60;;;21.60;54.90;;;;;;5102007;28;20047;-74
2021/12/15 07:50:37;;;;;;;6.00;3.85;;;21.60;55.00;;;;;;5100952;28;20039;-76
2021/12/15 07:53:04;;;;;;;8.10;4.18;;;21.60;55.00;;;;;;5103638;28;20068;-78
2021/12/15 07:55:30;;;;;;;7.25;3.75;;;21.60;55.00;;;;;;5101026;28;20081;-77
2021/12/15 07:57:57;;;;;;;5.07;3.63;;;21.70;55.10;;;;;;5101579;28;20553;-74
2021/12/15 08:00:23;;;;;;;4.88;3.70;;;21.70;55.10;;;;;;5095329;28;20127;-77
2021/12/15 08:02:51;;;;;;;5.65;3.70;;;21.70;55.20;;;;;;5098466;28;20050;-76
2021/12/15 08:05:16;;;;;;;3.88;3.45;;;21.70;55.20;;;;;;5093816;28;20039;-73
2021/12/15 08:07:42;;;;;;;5.78;3.90;;;21.70;55.30;;;;;;5101380;28;20394;-77
2021/12/15 08:10:11;;;;;;;7.95;3.80;;;21.70;55.30;;;;;;5102739;28;20134;-77
2021/12/15 08:12:37;;;;;;;;;;;21.70;55.30;;;;;;5103689;28;20059;-71
2021/12/15 08:15:06;;;;;;;4.47;3.58;;;21.70;55.20;;;;;;5103436;28;20057;-76
2021/12/15 08:17:32;;;;;;;5.72;3.80;;;21.70;55.90;;;;;;5095689;28;20067;-73
2021/12/15 08:19:57;;;;;;;5.85;3.63;;;21.70;55.20;;;;;;5101811;28;20075;-78
2021/12/15 08:22:23;;;;;;;4.63;3.60;;;21.70;55.30;;;;;;5094818;28;20047;-72
2021/12/15 08:24:48;;;;;;;4.63;3.70;;;21.70;55.30;;;;;;5100361;28;20040;-78
2021/12/15 08:27:14;;;;;;;5.35;3.40;;;21.70;55.30;;;;;;5104256;28;20039;-78
2021/12/15 08:29:39;;;;;;;5.13;3.72;;;21.80;55.30;;;;;;5103493;28;20047;-76
2021/12/15 08:32:05;;;;;;;5.78;3.40;;;21.70;55.30;;;;;;5100664;28;20060;-80
2021/12/15 08:34:31;;;;;;;5.13;3.85;;;21.80;55.30;;;;;;5090746;28;20040;-79
2021/12/15 08:36:58;;;;;;;9.52;3.90;;;21.80;55.30;;;;;;5101404;28;20088;-76
2021/12/15 08:39:24;;;;;;;8.52;3.70;;;21.80;55.30;;;;;;5076095;28;20047;-76
2021/12/15 08:41:50;;;;;;;5.43;3.88;;;21.70;55.20;;;;;;5094968;28;20046;-76
2021/12/15 08:44:16;;;;;;;6.18;3.63;;;21.80;55.30;;;;;;5076053;28;20032;-74
2021/12/15 08:46:44;;;;;;;6.10;3.60;;;21.80;55.30;;;;;;5093978;28;20173;-72
2021/12/15 08:49:13;;;;;;;;;;;21.80;55.30;;;;;;5096245;28;20032;-77
2021/12/15 08:51:38;;;;;;;5.90;3.88;;;21.80;55.10;;;;;;5103106;28;19970;-77
2021/12/15 08:54:08;;;;;;;5.35;3.47;;;21.80;55.20;;;;;;5101234;28;20487;-81
2021/12/15 08:56:37;;;;;;;4.88;3.20;;;21.80;55.20;;;;;;5100855;28;20035;-77
2021/12/15 08:59:03;;;;;;;;;;;21.80;55.20;;;;;;5100216;27;20100;-69
2021/12/15 09:01:29;;;;;;;5.28;3.53;;;21.80;55.20;;;;;;5104080;27;19996;-77
2021/12/15 09:03:54;;;;;;;7.22;3.60;;;21.80;55.20;;;;;;5099854;28;20055;-79
2021/12/15 09:06:20;;;;;;;4.70;3.30;;;21.80;55.20;;;;;;5104870;28;21346;-79
2021/12/15 09:08:46;;;;;;;5.05;3.50;;;21.80;55.20;;;;;;5103789;27;20521;-79
2021/12/15 09:11:15;;;;;;;5.68;3.65;;;21.80;55.20;;;;;;5114499;27;20063;-77
2021/12/15 09:13:43;;;;;;;4.22;3.50;;;21.80;55.10;;;;;;5103714;28;20055;-75
2021/12/15 09:16:11;;;;;;;5.05;3.65;;;21.80;55.00;;;;;;5103669;28;20036;-76
2021/12/15 09:18:39;;;;;;;5.80;3.83;;;21.80;54.80;;;;;;5102088;28;20089;-77
2021/12/15 09:21:06;;;;;;;6.47;4.13;;;21.80;54.70;;;;;;5105464;28;20055;-79
2021/12/15 09:23:32;;;;;;;5.97;3.47;;;21.80;54.60;;;;;;5101249;28;20044;-79
2021/12/15 09:25:58;;;;;;;11.05;3.80;;;21.80;54.60;;;;;;5102489;28;20049;-79
2021/12/15 09:28:25;;;;;;;18.92;4.18;;;21.80;54.70;;;;;;5095080;27;20039;-71
2021/12/15 09:30:52;;;;;;;6.38;3.70;;;21.80;55.00;;;;;;5087289;27;20087;-76
2021/12/15 09:33:28;;;;;;;8.80;3.75;;;21.80;55.10;;;;;;5093533;28;20047;-75
2021/12/15 09:35:53;;;;;;;6.90;3.85;;;21.80;55.20;;;;;;5093999;28;20519;-74
2021/12/15 09:38:20;;;;;;;11.82;4.28;;;21.80;55.20;;;;;;5103741;28;20043;-78
2021/12/15 09:40:48;;;;;;;9.00;3.70;;;21.80;55.20;;;;;;5099375;28;20042;-77
2021/12/15 09:43:14;;;;;;;9.50;3.85;;;21.80;55.30;;;;;;5105287;28;20126;-77
2021/12/15 09:45:54;;;;;;;7.07;3.53;;;21.80;55.40;;;;;;5106806;28;20100;-75
2021/12/15 10:02:27;;;;;;;9.88;3.95;;;21.80;55.50;;;;;;5087627;28;20055;-75
2021/12/15 10:18:29;;;;;;;5.45;3.78;;;21.80;55.20;;;;;;5106133;27;20116;-75
2021/12/15 10:20:56;;;;;;;8.90;3.78;;;21.80;55.20;;;;;;5103183;28;20032;-74
2021/12/15 10:23:25;;;;;;;6.80;3.50;;;21.80;55.10;;;;;;5107049;28;20063;-73
2021/12/15 10:25:55;;;;;;;6.40;3.40;;;21.80;55.20;;;;;;5106303;28;20051;-75
2021/12/15 10:28:26;;;;;;;8.20;3.70;;;21.80;55.10;;;;;;5104528;28;20050;-75
2021/12/15 10:30:51;;;;;;;8.23;3.70;;;21.80;55.10;;;;;;5105491;28;20051;-73
2021/12/15 10:33:20;;;;;;;12.32;3.90;;;21.80;55.20;;;;;;5126391;27;20051;-74
2021/12/15 10:35:52;;;;;;;12.98;3.80;;;21.80;55.10;;;;;;5100531;27;20048;-74
2021/12/15 10:38:31;;;;;;;6.22;3.13;;;21.80;55.10;;;;;;5106123;28;20079;-75
2021/12/15 10:41:07;;;;;;;4.70;3.22;;;21.80;55.10;;;;;;5103427;28;20039;-75
2021/12/15 10:43:44;;;;;;;8.88;3.33;;;21.80;55.10;;;;;;5107466;28;20108;-74
2021/12/15 10:46:18;;;;;;;4.60;3.08;;;21.80;55.10;;;;;;5099302;28;20483;-75
2021/12/15 10:48:49;;;;;;;7.40;3.10;;;21.80;55.00;;;;;;5103578;27;20044;-74
2021/12/15 10:51:55;;;;;;;4.35;3.10;;;21.80;55.00;;;;;;5103796;28;20035;-73
2021/12/15 10:54:29;;;;;;;4.93;3.05;;;21.80;54.90;;;;;;5091094;28;20043;-75
2021/12/15 10:57:05;;;;;;;7.35;3.42;;;21.80;55.00;;;;;;5105176;28;20503;-72
2021/12/15 10:59:39;;;;;;;6.25;3.30;;;21.80;55.00;;;;;;5103089;28;20058;-74
2021/12/15 11:02:11;;;;;;;6.65;3.28;;;21.80;55.00;;;;;;5098353;28;20052;-74
2021/12/15 11:04:42;;;;;;;7.90;3.75;;;21.80;55.00;;;;;;5100900;27;20046;-74
2021/12/15 11:07:29;;;;;;;6.45;3.08;;;21.80;55.00;;;;;;5103111;28;20047;-75
2021/12/15 11:10:07;;;;;;;6.72;3.13;;;21.80;55.00;;;;;;5103181;28;20070;-71
2021/12/15 11:12:34;;;;;;;5.03;3.20;;;21.80;55.00;;;;;;5102384;28;20120;-74
2021/12/15 11:15:15;;;;;;;7.38;3.13;;;21.80;55.00;;;;;;5102396;28;20134;-73
2021/12/15 11:17:48;;;;;;;24.92;12.25;;;21.80;55.10;;;;;;5104107;28;20055;-70
2021/12/15 11:20:27;;;;;;;21.27;12.18;;;21.80;55.10;;;;;;5129713;27;20241;-73
2021/12/15 11:23:00;;;;;;;13.80;8.50;;;21.80;55.20;;;;;;5103184;28;20055;-74
2021/12/15 11:25:31;;;;;;;14.73;8.55;;;21.80;55.20;;;;;;5103778;28;20529;-72
2021/12/15 11:28:05;;;;;;;9.93;7.00;;;21.80;55.20;;;;;;5098497;28;20043;-74
2021/12/15 11:30:40;;;;;;;14.27;6.38;;;21.80;55.30;;;;;;5134572;27;20559;-75
2021/12/15 11:33:13;;;;;;;12.50;6.40;;;21.80;55.50;;;;;;5084842;28;20039;-75
2021/12/15 11:35:50;;;;;;;10.07;5.85;;;21.80;55.50;;;;;;5102956;28;20054;-75
2021/12/15 11:38:19;;;;;;;8.20;5.60;;;21.80;55.60;;;;;;5103401;28;20164;-75
2021/12/15 11:41:08;;;;;;;9.98;5.47;;;21.80;55.70;;;;;;5102072;28;20054;-73
2021/12/15 11:43:36;;;;;;;9.07;5.05;;;21.80;55.70;;;;;;5088104;28;20240;-77
2021/12/15 11:46:17;;;;;;;13.52;5.10;;;21.80;55.70;;;;;;5103883;27;20455;-73
2021/12/15 11:48:46;;;;;;;8.32;5.00;;;21.80;55.60;;;;;;5103716;28;20130;-75
2021/12/15 11:51:12;;;;;;;8.75;5.18;;;21.80;55.60;;;;;;5086448;28;20066;-74
2021/12/15 11:53:42;;;;;;;13.13;5.25;;;21.80;55.70;;;;;;5101836;28;20141;-76
2021/12/15 11:56:25;;;;;;;8.85;4.68;;;21.80;55.70;;;;;;5102739;28;20039;-74
2021/12/15 11:58:56;;;;;;;9.05;4.25;;;21.80;55.80;;;;;;5100934;28;20044;-73
2021/12/15 12:01:44;;;;;;;8.10;4.70;;;21.80;55.80;;;;;;5102724;28;20054;-73
2021/12/15 12:04:13;;;;;;;;;;;21.80;55.90;;;;;;5104083;28;20130;-77
2021/12/15 12:06:38;;;;;;;9.50;4.70;;;21.80;55.90;;;;;;5127749;27;19927;-73
2021/12/15 12:09:05;;;;;;;8.70;4.45;;;21.90;55.90;;;;;;5085864;28;20437;-75
2021/12/15 12:11:33;;;;;;;5.80;4.55;;;21.90;56.00;;;;;;5133075;27;20036;-75
2021/12/15 12:14:00;;;;;;;7.82;4.63;;;21.90;56.00;;;;;;5100904;28;20498;-76
2021/12/15 12:16:26;;;;;;;6.60;4.43;;;21.90;56.10;;;;;;5085082;28;20040;-75
2021/12/15 12:18:53;;;;;;;12.23;4.50;;;21.90;56.10;;;;;;5104129;28;20732;-75
2021/12/15 12:21:20;;;;;;;7.45;4.40;;;21.90;56.10;;;;;;5102015;28;20053;-73
2021/12/15 12:23:49;;;;;;;11.10;4.70;;;21.90;56.20;;;;;;5102087;28;20051;-73
2021/12/15 12:26:16;;;;;;;6.35;4.40;;;21.90;56.20;;;;;;5107837;28;20051;-75
2021/12/15 12:28:46;;;;;;;8.52;4.78;;;21.90;56.20;;;;;;5104752;28;20863;-72
2021/12/15 12:31:20;;;;;;;8.35;4.82;;;22.00;56.30;;;;;;5116965;27;20052;-75
2021/12/15 12:33:46;;;;;;;6.70;4.50;;;21.90;56.30;;;;;;5087448;28;20036;-72
2021/12/15 12:36:25;;;;;;;7.18;4.50;;;21.90;56.30;;;;;;5106677;28;20163;-73
2021/12/15 12:38:54;;;;;;;8.02;4.85;;;21.90;56.30;;;;;;5108380;28;20043;-75
2021/12/15 12:41:24;;;;;;;6.97;4.10;;;21.90;56.30;;;;;;5089194;28;20036;-75
2021/12/15 12:43:54;;;;;;;6.10;4.00;;;21.90;56.30;;;;;;5104891;28;20050;-76
2021/12/15 12:46:51;;;;;;;6.68;4.18;;;21.90;56.30;;;;;;5107526;28;20034;-77
2021/12/15 12:59:21;;;;;;;10.43;4.13;;;21.90;56.30;;;;;;5099731;28;20087;-72
2021/12/15 13:00:51;;;;;;;9.10;4.50;;;21.90;56.40;;;;;;5102105;28;20460;-74
2021/12/15 13:03:25;;;;;;;8.25;4.20;;;21.90;56.40;;;;;;5102050;28;20086;-75
2021/12/15 13:06:11;;;;;;;9.20;4.03;;;21.90;56.50;;;;;;5105179;28;20048;-75
2021/12/15 13:08:54;;;;;;;6.53;3.60;;;21.90;56.50;;;;;;5099076;28;20040;-76
2021/12/15 13:11:20;;;;;;;6.60;3.67;;;21.90;56.40;;;;;;5093338;28;20400;-74
2021/12/15 13:13:57;;;;;;;6.75;3.67;;;21.90;56.40;;;;;;5100361;28;20051;-73
2021/12/15 13:16:31;;;;;;;6.18;3.78;;;21.90;56.50;;;;;;5100365;28;20056;-78
2021/12/15 13:19:01;;;;;;;7.40;3.75;;;21.90;56.40;;;;;;5104236;28;20075;-73
2021/12/15 13:30:50;;;;;;;8.82;3.65;;;22.00;57.20;;;;;;5105772;28;20092;-78
2021/12/15 13:33:31;;;;;;;5.28;3.13;;;21.90;56.30;;;;;;5105013;28;20039;-78
2021/12/15 13:36:20;;;;;;;7.88;3.40;;;21.90;56.40;;;;;;5103553;28;20126;-77
2021/12/15 13:39:07;;;;;;;9.25;3.65;;;21.90;56.30;;;;;;5082903;28;20212;-78
2021/12/15 13:41:44;;;;;;;6.25;3.30;;;21.90;56.30;;;;;;5104919;28;20065;-78
2021/12/15 13:44:33;;;;;;;7.68;3.25;;;21.90;56.30;;;;;;5130173;27;20051;-76
2021/12/15 13:47:02;;;;;;;6.22;3.33;;;21.90;56.30;;;;;;5103840;28;20067;-77
2021/12/15 13:49:38;;;;;;;5.28;3.20;;;21.90;56.40;;;;;;5103225;28;20070;-78
2021/12/15 13:52:10;;;;;;;4.50;3.22;;;21.90;56.40;;;;;;5105048;28;20081;-78
2021/12/15 13:54:35;;;;;;;6.85;3.38;;;21.90;56.40;;;;;;5133732;27;20096;-79
2021/12/15 13:57:16;;;;;;;7.78;3.40;;;21.90;56.40;;;;;;5132010;27;20456;-80
2021/12/15 14:00:01;;;;;;;6.40;3.30;;;21.90;56.40;;;;;;5102420;28;20042;-78
2021/12/15 14:02:54;;;;;;;6.00;3.15;;;21.90;56.40;;;;;;5104631;28;20130;-76
2021/12/15 14:05:25;;;;;;;8.43;3.00;;;21.90;56.50;;;;;;5104700;28;20097;-77
2021/12/15 14:07:57;;;;;;;5.50;3.03;;;21.90;56.50;;;;;;5104288;28;20462;-76
2021/12/15 14:10:24;;;;;;;5.95;2.85;;;21.90;56.40;;;;;;5104556;28;20043;-80
2021/12/15 14:12:57;;;;;;;6.38;2.67;;;21.90;56.50;;;;;;5103157;28;20048;-75
2021/12/15 14:15:25;;;;;;;4.18;2.70;;;21.90;56.50;;;;;;5087025;28;20077;-72
2021/12/15 14:18:12;;;;;;;5.15;2.70;;;21.90;56.50;;;;;;5126058;27;20044;-78
2021/12/15 14:20:46;;;;;;;7.95;2.92;;;21.90;56.50;;;;;;5101996;28;20047;-76
2021/12/15 14:23:24;;;;;;;6.22;2.75;;;21.90;56.50;;;;;;5106989;28;20066;-79
2021/12/15 14:25:51;;;;;;;5.80;2.70;;;21.80;56.40;;;;;;5084741;28;20039;-79
2021/12/15 14:28:23;;;;;;;4.18;2.80;;;21.80;56.40;;;;;;5103793;28;20740;-74
2021/12/15 14:30:54;;;;;;;4.45;2.83;;;21.90;56.60;;;;;;5103435;28;20557;-73
2021/12/15 14:33:27;;;;;;;5.10;2.53;;;21.80;56.60;;;;;;5097262;28;20096;-73
2021/12/15 14:35:59;;;;;;;4.20;2.38;;;21.80;56.50;;;;;;5104805;28;20058;-73